sensor_id;sensor_type;location;lat;lon;timestamp;temperature;humidity
5118;DHT22;2578;51.622;7.046;2022-11-27T00:02:24;5.70;99.90
5118;DHT22;2578;51.622;7.046;2022-11-27T00:04:50;5.60;99.90
5118;DHT22;2578;51.622;7.046;2022-11-27T00:07:15;5.60;99.90
5118;DHT22;2578;51.622;7.046;2022-11-27T00:09:41;5.60;99.90
5118;DHT22;2578;51.622;7.046;2022-11-27T00:12:07;5.60;99.90
5118;DHT22;2578;51.622;7.046;2022-11-27T00:14:32;5.50;99.90
5118;DHT22;2578;51.622;7.046;2022-11-27T00:16:58;5.50;99.90
5118;DHT22;2578;51.622;7.046;2022-11-27T00:19:24;5.40;99.90
5118;DHT22;2578;51.622;7.046;2022-11-27T00:21:50;5.40;99.90
5118;DHT22;2578;51.622;7.046;2022-11-27T00:24:15;5.50;99.90
5118;DHT22;2578;51.622;7.046;2022-11-27T00:26:41;6.40;99.90
5118;DHT22;2578;51.622;7.046;2022-11-27T00:29:07;5.50;99.90
5118;DHT22;2578;51.622;7.046;2022-11-27T00:31:34;5.50;99.90
5118;DHT22;2578;51.622;7.046;2022-11-27T00:34:03;5.50;99.90
5118;DHT22;2578;51.622;7.046;2022-11-27T00:36:30;5.50;99.90
5118;DHT22;2578;51.622;7.046;2022-11-27T00:38:57;5.50;99.90
5118;DHT22;2578;51.622;7.046;2022-11-27T00:41:25;5.40;99.90
5118;DHT22;2578;51.622;7.046;2022-11-27T00:43:51;5.40;99.90
5118;DHT22;2578;51.622;7.046;2022-11-27T00:46:21;5.40;99.90
5118;DHT22;2578;51.622;7.046;2022-11-27T00:48:46;5.30;99.90
5118;DHT22;2578;51.622;7.046;2022-11-27T00:51:18;5.30;99.90
5118;DHT22;2578;51.622;7.046;2022-11-27T00:53:44;5.30;99.90
5118;DHT22;2578;51.622;7.046;2022-11-27T00:56:15;5.20;99.90
5118;DHT22;2578;51.622;7.046;2022-11-27T00:58:42;5.90;99.90
5118;DHT22;2578;51.622;7.046;2022-11-27T01:01:07;5.10;99.90
5118;DHT22;2578;51.622;7.046;2022-11-27T01:03:34;5.10;99.90
5118;DHT22;2578;51.622;7.046;2022-11-27T01:06:04;5.00;99.90
5118;DHT22;2578;51.622;7.046;2022-11-27T01:08:30;4.80;99.90
5118;DHT22;2578;51.622;7.046;2022-11-27T01:10:57;4.80;99.90
5118;DHT22;2578;51.622;7.046;2022-11-27T01:13:24;3.40;99.90
5118;DHT22;2578;51.622;7.046;2022-11-27T01:16:09;4.80;99.90
5118;DHT22;2578;51.622;7.046;2022-11-27T01:18:36;4.90;99.90
5118;DHT22;2578;51.622;7.046;2022-11-27T01:21:03;4.90;99.90
5118;DHT22;2578;51.622;7.046;2022-11-27T01:23:29;4.90;99.90
5118;DHT22;2578;51.622;7.046;2022-11-27T01:25:55;7.40;99.90
5118;DHT22;2578;51.622;7.046;2022-11-27T01:28:23;5.00;99.90
5118;DHT22;2578;51.622;7.046;2022-11-27T01:30:49;5.00;99.90
5118;DHT22;2578;51.622;7.046;2022-11-27T01:33:16;5.00;99.90
5118;DHT22;2578;51.622;7.046;2022-11-27T01:35:41;5.00;99.90
5118;DHT22;2578;51.622;7.046;2022-11-27T01:38:07;6.60;99.90
5118;DHT22;2578;51.622;7.046;2022-11-27T01:40:33;4.90;99.90
5118;DHT22;2578;51.622;7.046;2022-11-27T01:42:59;4.90;99.90
5118;DHT22;2578;51.622;7.046;2022-11-27T01:45:24;4.80;99.90
5118;DHT22;2578;51.622;7.046;2022-11-27T01:47:53;5.90;99.90
5118;DHT22;2578;51.622;7.046;2022-11-27T01:50:24;4.70;99.90
5118;DHT22;2578;51.622;7.046;2022-11-27T01:52:54;4.60;99.90
5118;DHT22;2578;51.622;7.046;2022-11-27T01:57:55;4.60;99.90
5118;DHT22;2578;51.622;7.046;2022-11-27T02:00:22;4.50;99.90
5118;DHT22;2578;51.622;7.046;2022-11-27T02:02:49;4.50;99.90
5118;DHT22;2578;51.622;7.046;2022-11-27T02:05:19;4.50;99.90
5118;DHT22;2578;51.622;7.046;2022-11-27T02:07:45;4.50;99.90
5118;DHT22;2578;51.622;7.046;2022-11-27T02:10:12;4.50;99.90
5118;DHT22;2578;51.622;7.046;2022-11-27T02:15:19;4.40;99.90
5118;DHT22;2578;51.622;7.046;2022-11-27T02:17:56;4.40;99.90
5118;DHT22;2578;51.622;7.046;2022-11-27T02:20:36;4.40;99.90
5118;DHT22;2578;51.622;7.046;2022-11-27T02:23:20;4.40;99.90
5118;DHT22;2578;51.622;7.046;2022-11-27T02:29:04;4.30;99.90
5118;DHT22;2578;51.622;7.046;2022-11-27T02:31:39;4.30;99.90
5118;DHT22;2578;51.622;7.046;2022-11-27T02:40:33;4.00;99.90
5118;DHT22;2578;51.622;7.046;2022-11-27T02:43:54;3.90;99.90
5118;DHT22;2578;51.622;7.046;2022-11-27T02:46:02;3.90;99.90
5118;DHT22;2578;51.622;7.046;2022-11-27T02:48:33;3.80;99.90
5118;DHT22;2578;51.622;7.046;2022-11-27T02:51:01;3.80;99.90
5118;DHT22;2578;51.622;7.046;2022-11-27T02:53:53;3.60;99.90
5118;DHT22;2578;51.622;7.046;2022-11-27T02:56:19;3.60;99.90
5118;DHT22;2578;51.622;7.046;2022-11-27T02:58:47;3.60;99.90
5118;DHT22;2578;51.622;7.046;2022-11-27T03:01:13;3.60;99.90
5118;DHT22;2578;51.622;7.046;2022-11-27T03:03:44;3.60;99.90
5118;DHT22;2578;51.622;7.046;2022-11-27T03:06:16;3.50;99.90
5118;DHT22;2578;51.622;7.046;2022-11-27T03:09:23;3.50;99.90
5118;DHT22;2578;51.622;7.046;2022-11-27T03:11:40;3.50;99.90
5118;DHT22;2578;51.622;7.046;2022-11-27T03:14:07;3.60;99.90
5118;DHT22;2578;51.622;7.046;2022-11-27T03:16:37;3.60;99.90
5118;DHT22;2578;51.622;7.046;2022-11-27T03:21:41;3.60;99.90
5118;DHT22;2578;51.622;7.046;2022-11-27T03:24:08;3.60;99.90
5118;DHT22;2578;51.622;7.046;2022-11-27T03:26:35;3.70;99.90
5118;DHT22;2578;51.622;7.046;2022-11-27T03:29:04;3.70;99.90
5118;DHT22;2578;51.622;7.046;2022-11-27T03:31:30;3.70;99.90
5118;DHT22;2578;51.622;7.046;2022-11-27T03:33:56;3.80;99.90
5118;DHT22;2578;51.622;7.046;2022-11-27T03:36:22;5.40;99.90
5118;DHT22;2578;51.622;7.046;2022-11-27T03:38:49;3.60;99.90
5118;DHT22;2578;51.622;7.046;2022-11-27T03:41:52;3.60;99.90
5118;DHT22;2578;51.622;7.046;2022-11-27T03:49:51;3.70;99.90
5118;DHT22;2578;51.622;7.046;2022-11-27T03:58:22;4.10;99.90
5118;DHT22;2578;51.622;7.046;2022-11-27T04:00:50;4.10;99.90
5118;DHT22;2578;51.622;7.046;2022-11-27T04:03:23;4.20;99.90
5118;DHT22;2578;51.622;7.046;2022-11-27T04:05:49;4.30;99.90
5118;DHT22;2578;51.622;7.046;2022-11-27T04:08:15;4.30;99.90
5118;DHT22;2578;51.622;7.046;2022-11-27T04:10:40;4.50;99.90
5118;DHT22;2578;51.622;7.046;2022-11-27T04:13:06;4.60;99.90
5118;DHT22;2578;51.622;7.046;2022-11-27T04:15:31;4.60;99.90
5118;DHT22;2578;51.622;7.046;2022-11-27T04:20:23;4.70;99.90
5118;DHT22;2578;51.622;7.046;2022-11-27T04:22:48;4.70;99.90
5118;DHT22;2578;51.622;7.046;2022-11-27T04:25:14;4.70;99.90
5118;DHT22;2578;51.622;7.046;2022-11-27T04:27:40;4.80;99.90
5118;DHT22;2578;51.622;7.046;2022-11-27T04:30:07;4.90;99.90
5118;DHT22;2578;51.622;7.046;2022-11-27T04:32:33;5.00;99.90
5118;DHT22;2578;51.622;7.046;2022-11-27T04:34:59;5.00;99.90
5118;DHT22;2578;51.622;7.046;2022-11-27T04:37:25;5.10;99.90
5118;DHT22;2578;51.622;7.046;2022-11-27T04:39:50;5.10;99.90
5118;DHT22;2578;51.622;7.046;2022-11-27T04:42:16;5.10;99.90
5118;DHT22;2578;51.622;7.046;2022-11-27T04:44:42;5.10;99.90
5118;DHT22;2578;51.622;7.046;2022-11-27T04:47:07;5.10;99.90
5118;DHT22;2578;51.622;7.046;2022-11-27T04:49:33;5.10;99.90
5118;DHT22;2578;51.622;7.046;2022-11-27T04:51:58;5.20;99.90
5118;DHT22;2578;51.622;7.046;2022-11-27T04:54:24;3.20;99.90
5118;DHT22;2578;51.622;7.046;2022-11-27T04:56:50;5.20;99.90
5118;DHT22;2578;51.622;7.046;2022-11-27T04:59:16;5.10;99.90
5118;DHT22;2578;51.622;7.046;2022-11-27T05:01:41;5.10;99.90
5118;DHT22;2578;51.622;7.046;2022-11-27T05:04:07;5.30;99.90
5118;DHT22;2578;51.622;7.046;2022-11-27T05:06:32;5.20;99.90
5118;DHT22;2578;51.622;7.046;2022-11-27T05:08:58;5.20;99.90
5118;DHT22;2578;51.622;7.046;2022-11-27T05:11:28;5.20;99.90
5118;DHT22;2578;51.622;7.046;2022-11-27T05:13:54;5.20;99.90
5118;DHT22;2578;51.622;7.046;2022-11-27T05:16:40;5.30;99.90
5118;DHT22;2578;51.622;7.046;2022-11-27T05:19:07;5.30;99.90
5118;DHT22;2578;51.622;7.046;2022-11-27T05:21:32;5.30;99.90
5118;DHT22;2578;51.622;7.046;2022-11-27T05:23:58;5.20;99.90
5118;DHT22;2578;51.622;7.046;2022-11-27T05:26:23;5.30;99.90
5118;DHT22;2578;51.622;7.046;2022-11-27T05:28:49;5.20;99.90
5118;DHT22;2578;51.622;7.046;2022-11-27T05:31:14;5.30;99.90
5118;DHT22;2578;51.622;7.046;2022-11-27T05:33:40;5.30;99.90
5118;DHT22;2578;51.622;7.046;2022-11-27T05:36:06;5.30;99.90
5118;DHT22;2578;51.622;7.046;2022-11-27T05:38:31;5.30;99.90
5118;DHT22;2578;51.622;7.046;2022-11-27T05:40:57;5.30;99.90
5118;DHT22;2578;51.622;7.046;2022-11-27T05:43:22;5.30;99.90
5118;DHT22;2578;51.622;7.046;2022-11-27T05:45:48;5.30;99.90
5118;DHT22;2578;51.622;7.046;2022-11-27T05:48:14;5.50;99.90
5118;DHT22;2578;51.622;7.046;2022-11-27T05:50:39;5.40;99.90
5118;DHT22;2578;51.622;7.046;2022-11-27T05:53:05;5.40;99.90
5118;DHT22;2578;51.622;7.046;2022-11-27T05:55:31;5.40;99.90
5118;DHT22;2578;51.622;7.046;2022-11-27T05:57:56;5.40;99.90
5118;DHT22;2578;51.622;7.046;2022-11-27T06:00:22;5.40;99.90
5118;DHT22;2578;51.622;7.046;2022-11-27T06:02:47;5.40;99.90
5118;DHT22;2578;51.622;7.046;2022-11-27T06:05:13;5.40;99.90
5118;DHT22;2578;51.622;7.046;2022-11-27T06:07:39;5.30;99.90
5118;DHT22;2578;51.622;7.046;2022-11-27T06:10:05;5.30;99.90
5118;DHT22;2578;51.622;7.046;2022-11-27T06:12:31;5.30;99.90
5118;DHT22;2578;51.622;7.046;2022-11-27T06:14:57;5.40;99.90
5118;DHT22;2578;51.622;7.046;2022-11-27T06:17:22;5.90;99.90
5118;DHT22;2578;51.622;7.046;2022-11-27T06:19:48;5.30;99.90
5118;DHT22;2578;51.622;7.046;2022-11-27T06:22:13;5.40;99.90
5118;DHT22;2578;51.622;7.046;2022-11-27T06:24:39;5.40;99.90
5118;DHT22;2578;51.622;7.046;2022-11-27T06:27:04;5.50;99.90
5118;DHT22;2578;51.622;7.046;2022-11-27T06:29:30;5.60;99.90
5118;DHT22;2578;51.622;7.046;2022-11-27T06:31:55;5.70;99.90
5118;DHT22;2578;51.622;7.046;2022-11-27T06:34:21;5.70;99.90
5118;DHT22;2578;51.622;7.046;2022-11-27T06:36:47;5.70;99.90
5118;DHT22;2578;51.622;7.046;2022-11-27T06:39:13;5.80;99.90
5118;DHT22;2578;51.622;7.046;2022-11-27T06:41:39;5.80;99.90
5118;DHT22;2578;51.622;7.046;2022-11-27T06:44:05;5.60;99.90
5118;DHT22;2578;51.622;7.046;2022-11-27T06:46:30;5.90;99.90
5118;DHT22;2578;51.622;7.046;2022-11-27T06:48:57;6.00;99.90
5118;DHT22;2578;51.622;7.046;2022-11-27T06:51:25;6.00;99.90
5118;DHT22;2578;51.622;7.046;2022-11-27T06:53:51;6.00;99.90
5118;DHT22;2578;51.622;7.046;2022-11-27T06:56:19;6.10;99.90
5118;DHT22;2578;51.622;7.046;2022-11-27T06:58:45;6.10;99.90
5118;DHT22;2578;51.622;7.046;2022-11-27T07:01:13;6.20;99.90
5118;DHT22;2578;51.622;7.046;2022-11-27T07:03:39;6.20;99.90
5118;DHT22;2578;51.622;7.046;2022-11-27T07:06:14;6.30;99.90
5118;DHT22;2578;51.622;7.046;2022-11-27T07:08:41;6.30;99.90
5118;DHT22;2578;51.622;7.046;2022-11-27T07:11:11;6.30;99.90
5118;DHT22;2578;51.622;7.046;2022-11-27T07:13:37;6.40;99.90
5118;DHT22;2578;51.622;7.046;2022-11-27T07:16:05;6.30;99.90
5118;DHT22;2578;51.622;7.046;2022-11-27T07:18:35;6.40;99.90
5118;DHT22;2578;51.622;7.046;2022-11-27T07:21:01;6.40;99.90
5118;DHT22;2578;51.622;7.046;2022-11-27T07:23:26;6.50;99.90
5118;DHT22;2578;51.622;7.046;2022-11-27T07:25:52;6.50;99.90
5118;DHT22;2578;51.622;7.046;2022-11-27T07:28:17;6.50;99.90
5118;DHT22;2578;51.622;7.046;2022-11-27T07:30:43;6.60;99.90
5118;DHT22;2578;51.622;7.046;2022-11-27T07:33:08;6.80;99.90
5118;DHT22;2578;51.622;7.046;2022-11-27T07:35:34;6.60;99.90
5118;DHT22;2578;51.622;7.046;2022-11-27T07:38:00;6.60;99.90
5118;DHT22;2578;51.622;7.046;2022-11-27T07:40:25;6.60;99.90
5118;DHT22;2578;51.622;7.046;2022-11-27T07:42:51;6.70;99.90
5118;DHT22;2578;51.622;7.046;2022-11-27T07:45:18;6.70;99.90
5118;DHT22;2578;51.622;7.046;2022-11-27T07:47:43;6.70;99.90
5118;DHT22;2578;51.622;7.046;2022-11-27T07:50:09;6.80;99.90
5118;DHT22;2578;51.622;7.046;2022-11-27T07:52:36;6.70;99.90
5118;DHT22;2578;51.622;7.046;2022-11-27T07:55:02;6.50;99.90
5118;DHT22;2578;51.622;7.046;2022-11-27T07:57:28;6.70;99.90
5118;DHT22;2578;51.622;7.046;2022-11-27T07:59:53;6.80;99.90
5118;DHT22;2578;51.622;7.046;2022-11-27T08:02:19;6.70;99.90
5118;DHT22;2578;51.622;7.046;2022-11-27T08:04:45;6.80;99.90
5118;DHT22;2578;51.622;7.046;2022-11-27T08:07:11;6.80;99.90
5118;DHT22;2578;51.622;7.046;2022-11-27T08:09:36;6.80;99.90
5118;DHT22;2578;51.622;7.046;2022-11-27T08:12:04;6.90;99.90
5118;DHT22;2578;51.622;7.046;2022-11-27T08:14:30;6.90;99.90
5118;DHT22;2578;51.622;7.046;2022-11-27T08:16:55;7.00;99.90
5118;DHT22;2578;51.622;7.046;2022-11-27T08:19:21;7.10;99.90
5118;DHT22;2578;51.622;7.046;2022-11-27T08:21:47;7.10;99.90
5118;DHT22;2578;51.622;7.046;2022-11-27T08:24:12;7.20;99.90
5118;DHT22;2578;51.622;7.046;2022-11-27T08:26:38;7.20;99.90
5118;DHT22;2578;51.622;7.046;2022-11-27T08:29:04;7.30;99.90
5118;DHT22;2578;51.622;7.046;2022-11-27T08:31:31;7.40;99.90
5118;DHT22;2578;51.622;7.046;2022-11-27T08:33:57;7.40;99.90
5118;DHT22;2578;51.622;7.046;2022-11-27T08:36:24;7.50;99.90
5118;DHT22;2578;51.622;7.046;2022-11-27T08:38:51;7.70;99.90
5118;DHT22;2578;51.622;7.046;2022-11-27T08:41:16;7.70;99.90
5118;DHT22;2578;51.622;7.046;2022-11-27T08:43:42;7.80;99.90
5118;DHT22;2578;51.622;7.046;2022-11-27T08:46:08;7.80;99.90
5118;DHT22;2578;51.622;7.046;2022-11-27T08:48:34;7.90;99.90
5118;DHT22;2578;51.622;7.046;2022-11-27T08:51:14;7.90;99.90
5118;DHT22;2578;51.622;7.046;2022-11-27T08:53:39;8.00;99.90
5118;DHT22;2578;51.622;7.046;2022-11-27T08:56:14;8.10;99.90
5118;DHT22;2578;51.622;7.046;2022-11-27T08:58:41;8.20;99.90
5118;DHT22;2578;51.622;7.046;2022-11-27T09:01:17;8.20;99.90
5118;DHT22;2578;51.622;7.046;2022-11-27T09:03:43;8.30;99.90
5118;DHT22;2578;51.622;7.046;2022-11-27T09:06:11;8.30;99.90
5118;DHT22;2578;51.622;7.046;2022-11-27T09:08:38;8.40;99.90
5118;DHT22;2578;51.622;7.046;2022-11-27T09:11:05;10.10;99.90
5118;DHT22;2578;51.622;7.046;2022-11-27T09:13:31;8.50;99.90
5118;DHT22;2578;51.622;7.046;2022-11-27T09:15:57;8.60;99.90
5118;DHT22;2578;51.622;7.046;2022-11-27T09:18:23;8.60;99.90
5118;DHT22;2578;51.622;7.046;2022-11-27T09:20:59;8.60;99.90
5118;DHT22;2578;51.622;7.046;2022-11-27T09:23:26;9.60;99.90
5118;DHT22;2578;51.622;7.046;2022-11-27T09:25:52;8.50;99.90
5118;DHT22;2578;51.622;7.046;2022-11-27T09:28:18;8.50;99.90
5118;DHT22;2578;51.622;7.046;2022-11-27T09:30:44;8.60;99.90
5118;DHT22;2578;51.622;7.046;2022-11-27T09:33:10;9.00;99.90
5118;DHT22;2578;51.622;7.046;2022-11-27T09:35:39;8.60;99.90
5118;DHT22;2578;51.622;7.046;2022-11-27T09:38:04;8.70;99.90
5118;DHT22;2578;51.622;7.046;2022-11-27T09:40:30;8.70;99.90
5118;DHT22;2578;51.622;7.046;2022-11-27T09:43:02;8.80;99.90
5118;DHT22;2578;51.622;7.046;2022-11-27T09:45:35;10.50;99.90
5118;DHT22;2578;51.622;7.046;2022-11-27T09:48:04;9.20;99.90
5118;DHT22;2578;51.622;7.046;2022-11-27T09:50:42;9.20;99.90
5118;DHT22;2578;51.622;7.046;2022-11-27T09:55:42;9.30;99.90
5118;DHT22;2578;51.622;7.046;2022-11-27T09:58:14;9.50;99.90
5118;DHT22;2578;51.622;7.046;2022-11-27T10:00:42;9.50;99.90
5118;DHT22;2578;51.622;7.046;2022-11-27T10:03:20;9.60;99.90
5118;DHT22;2578;51.622;7.046;2022-11-27T10:06:17;9.80;99.90
5118;DHT22;2578;51.622;7.046;2022-11-27T10:09:00;9.90;99.90
5118;DHT22;2578;51.622;7.046;2022-11-27T10:11:46;10.00;99.90
5118;DHT22;2578;51.622;7.046;2022-11-27T10:17:01;10.10;99.90
5118;DHT22;2578;51.622;7.046;2022-11-27T10:19:42;10.10;99.90
5118;DHT22;2578;51.622;7.046;2022-11-27T10:23:04;10.10;99.90
5118;DHT22;2578;51.622;7.046;2022-11-27T10:28:05;10.20;99.90
5118;DHT22;2578;51.622;7.046;2022-11-27T10:30:42;11.00;99.90
5118;DHT22;2578;51.622;7.046;2022-11-27T10:33:19;10.20;99.90
5118;DHT22;2578;51.622;7.046;2022-11-27T10:35:47;10.20;99.90
5118;DHT22;2578;51.622;7.046;2022-11-27T10:38:22;10.10;99.90
5118;DHT22;2578;51.622;7.046;2022-11-27T10:41:32;10.60;99.90
5118;DHT22;2578;51.622;7.046;2022-11-27T10:43:53;10.20;96.30
5118;DHT22;2578;51.622;7.046;2022-11-27T10:46:25;10.20;98.60
5118;DHT22;2578;51.622;7.046;2022-11-27T10:48:52;10.20;99.90
5118;DHT22;2578;51.622;7.046;2022-11-27T10:51:21;10.50;98.80
5118;DHT22;2578;51.622;7.046;2022-11-27T10:53:51;11.30;99.90
5118;DHT22;2578;51.622;7.046;2022-11-27T10:59:15;10.10;99.90
5118;DHT22;2578;51.622;7.046;2022-11-27T11:01:48;10.00;99.90
5118;DHT22;2578;51.622;7.046;2022-11-27T11:04:19;10.00;99.90
5118;DHT22;2578;51.622;7.046;2022-11-27T11:06:47;10.10;99.10
5118;DHT22;2578;51.622;7.046;2022-11-27T11:11:48;10.10;99.90
5118;DHT22;2578;51.622;7.046;2022-11-27T11:14:25;10.20;99.90
5118;DHT22;2578;51.622;7.046;2022-11-27T11:16:52;10.20;99.90
5118;DHT22;2578;51.622;7.046;2022-11-27T11:21:50;10.20;99.90
5118;DHT22;2578;51.622;7.046;2022-11-27T11:26:56;10.60;99.90
5118;DHT22;2578;51.622;7.046;2022-11-27T11:29:30;9.90;99.90
5118;DHT22;2578;51.622;7.046;2022-11-27T11:32:04;9.80;99.90
5118;DHT22;2578;51.622;7.046;2022-11-27T11:34:31;11.10;99.90
5118;DHT22;2578;51.622;7.046;2022-11-27T11:37:03;9.60;99.90
5118;DHT22;2578;51.622;7.046;2022-11-27T11:39:33;9.50;99.90
5118;DHT22;2578;51.622;7.046;2022-11-27T11:42:00;9.40;99.90
5118;DHT22;2578;51.622;7.046;2022-11-27T11:44:38;9.40;99.90
5118;DHT22;2578;51.622;7.046;2022-11-27T11:47:03;9.30;99.90
5118;DHT22;2578;51.622;7.046;2022-11-27T11:49:32;9.30;99.90
5118;DHT22;2578;51.622;7.046;2022-11-27T12:00:08;9.30;99.90
5118;DHT22;2578;51.622;7.046;2022-11-27T12:11:18;9.20;99.90
5118;DHT22;2578;51.622;7.046;2022-11-27T12:14:18;9.20;99.90
5118;DHT22;2578;51.622;7.046;2022-11-27T12:17:19;9.40;99.90
5118;DHT22;2578;51.622;7.046;2022-11-27T12:25:34;9.80;99.90
5118;DHT22;2578;51.622;7.046;2022-11-27T12:28:27;9.20;99.90
5118;DHT22;2578;51.622;7.046;2022-11-27T12:44:27;9.50;99.90
5118;DHT22;2578;51.622;7.046;2022-11-27T12:47:01;9.60;99.90
5118;DHT22;2578;51.622;7.046;2022-11-27T12:49:33;9.60;99.90
5118;DHT22;2578;51.622;7.046;2022-11-27T12:54:58;9.70;99.90
5118;DHT22;2578;51.622;7.046;2022-11-27T12:57:39;9.70;99.90
5118;DHT22;2578;51.622;7.046;2022-11-27T13:00:23;9.60;99.90
5118;DHT22;2578;51.622;7.046;2022-11-27T13:05:54;9.60;99.90
5118;DHT22;2578;51.622;7.046;2022-11-27T13:08:34;9.60;99.90
5118;DHT22;2578;51.622;7.046;2022-11-27T13:11:08;9.50;99.90
5118;DHT22;2578;51.622;7.046;2022-11-27T13:16:11;9.50;99.90
5118;DHT22;2578;51.622;7.046;2022-11-27T13:18:55;9.50;99.90
5118;DHT22;2578;51.622;7.046;2022-11-27T13:21:29;9.50;99.90
5118;DHT22;2578;51.622;7.046;2022-11-27T13:23:59;9.40;99.90
5118;DHT22;2578;51.622;7.046;2022-11-27T13:26:34;9.40;99.90
5118;DHT22;2578;51.622;7.046;2022-11-27T13:29:04;9.40;99.90
5118;DHT22;2578;51.622;7.046;2022-11-27T13:31:33;9.40;99.90
5118;DHT22;2578;51.622;7.046;2022-11-27T13:34:07;9.30;99.90
5118;DHT22;2578;51.622;7.046;2022-11-27T13:36:45;9.30;99.90
5118;DHT22;2578;51.622;7.046;2022-11-27T13:39:26;9.30;99.90
5118;DHT22;2578;51.622;7.046;2022-11-27T13:42:21;9.30;99.90
5118;DHT22;2578;51.622;7.046;2022-11-27T13:45:07;9.30;99.90
5118;DHT22;2578;51.622;7.046;2022-11-27T13:47:38;9.30;99.90
5118;DHT22;2578;51.622;7.046;2022-11-27T13:50:11;9.40;99.90
5118;DHT22;2578;51.622;7.046;2022-11-27T13:52:48;9.40;99.90
5118;DHT22;2578;51.622;7.046;2022-11-27T13:55:25;9.50;99.90
5118;DHT22;2578;51.622;7.046;2022-11-27T13:57:53;10.70;99.90
5118;DHT22;2578;51.622;7.046;2022-11-27T14:00:39;9.40;99.90
5118;DHT22;2578;51.622;7.046;2022-11-27T14:03:06;9.50;99.90
5118;DHT22;2578;51.622;7.046;2022-11-27T14:05:42;9.40;99.90
5118;DHT22;2578;51.622;7.046;2022-11-27T14:08:23;9.40;99.90
5118;DHT22;2578;51.622;7.046;2022-11-27T14:11:10;9.40;99.90
5118;DHT22;2578;51.622;7.046;2022-11-27T14:13:45;9.40;99.90
5118;DHT22;2578;51.622;7.046;2022-11-27T14:16:21;9.40;99.90
5118;DHT22;2578;51.622;7.046;2022-11-27T14:18:57;9.40;99.90
5118;DHT22;2578;51.622;7.046;2022-11-27T14:21:37;9.40;99.90
5118;DHT22;2578;51.622;7.046;2022-11-27T14:24:36;9.70;99.90
5118;DHT22;2578;51.622;7.046;2022-11-27T14:27:19;9.40;99.90
5118;DHT22;2578;51.622;7.046;2022-11-27T14:29:46;11.00;99.90
5118;DHT22;2578;51.622;7.046;2022-11-27T14:32:14;9.40;99.90
5118;DHT22;2578;51.622;7.046;2022-11-27T14:34:40;9.40;99.90
5118;DHT22;2578;51.622;7.046;2022-11-27T14:37:06;10.20;99.90
5118;DHT22;2578;51.622;7.046;2022-11-27T14:39:43;9.40;99.90
5118;DHT22;2578;51.622;7.046;2022-11-27T14:44:45;9.50;99.90
5118;DHT22;2578;51.622;7.046;2022-11-27T14:47:18;9.50;99.90
5118;DHT22;2578;51.622;7.046;2022-11-27T14:49:45;9.40;99.90
5118;DHT22;2578;51.622;7.046;2022-11-27T14:52:15;9.40;99.90
5118;DHT22;2578;51.622;7.046;2022-11-27T14:54:43;9.30;99.90
5118;DHT22;2578;51.622;7.046;2022-11-27T14:57:15;9.20;99.90
5118;DHT22;2578;51.622;7.046;2022-11-27T14:59:42;9.10;99.90
5118;DHT22;2578;51.622;7.046;2022-11-27T15:04:41;9.10;99.90
5118;DHT22;2578;51.622;7.046;2022-11-27T15:07:21;9.20;99.90
5118;DHT22;2578;51.622;7.046;2022-11-27T15:09:48;9.10;99.90
5118;DHT22;2578;51.622;7.046;2022-11-27T15:12:24;9.00;99.90
5118;DHT22;2578;51.622;7.046;2022-11-27T15:15:00;8.90;99.90
5118;DHT22;2578;51.622;7.046;2022-11-27T15:17:29;8.80;99.90
5118;DHT22;2578;51.622;7.046;2022-11-27T15:19:56;8.80;99.90
5118;DHT22;2578;51.622;7.046;2022-11-27T15:22:22;8.70;99.90
5118;DHT22;2578;51.622;7.046;2022-11-27T15:28:42;8.60;99.90
5118;DHT22;2578;51.622;7.046;2022-11-27T15:31:27;8.60;99.90
5118;DHT22;2578;51.622;7.046;2022-11-27T15:36:22;8.20;99.90
5118;DHT22;2578;51.622;7.046;2022-11-27T15:38:48;8.50;99.90
5118;DHT22;2578;51.622;7.046;2022-11-27T15:43:48;8.40;99.90
5118;DHT22;2578;51.622;7.046;2022-11-27T15:46:14;8.40;99.90
5118;DHT22;2578;51.622;7.046;2022-11-27T15:48:42;8.30;99.90
5118;DHT22;2578;51.622;7.046;2022-11-27T15:51:08;9.20;99.90
5118;DHT22;2578;51.622;7.046;2022-11-27T15:53:33;8.20;99.90
5118;DHT22;2578;51.622;7.046;2022-11-27T15:55:59;8.30;99.90
5118;DHT22;2578;51.622;7.046;2022-11-27T15:58:24;8.30;99.90
5118;DHT22;2578;51.622;7.046;2022-11-27T16:00:50;10.30;99.90
5118;DHT22;2578;51.622;7.046;2022-11-27T16:03:16;8.40;99.90
5118;DHT22;2578;51.622;7.046;2022-11-27T16:05:41;8.40;99.90
5118;DHT22;2578;51.622;7.046;2022-11-27T16:08:07;8.50;99.90
5118;DHT22;2578;51.622;7.046;2022-11-27T16:10:39;8.70;99.90
5118;DHT22;2578;51.622;7.046;2022-11-27T16:13:05;8.50;99.90
5118;DHT22;2578;51.622;7.046;2022-11-27T16:15:31;8.50;99.90
5118;DHT22;2578;51.622;7.046;2022-11-27T16:17:57;8.50;99.90
5118;DHT22;2578;51.622;7.046;2022-11-27T16:20:23;8.50;99.90
5118;DHT22;2578;51.622;7.046;2022-11-27T16:22:48;9.60;99.90
5118;DHT22;2578;51.622;7.046;2022-11-27T16:25:14;8.50;99.90
5118;DHT22;2578;51.622;7.046;2022-11-27T16:27:40;8.40;99.90
5118;DHT22;2578;51.622;7.046;2022-11-27T16:30:06;8.50;99.90
5118;DHT22;2578;51.622;7.046;2022-11-27T16:32:31;8.50;99.90
5118;DHT22;2578;51.622;7.046;2022-11-27T16:34:57;8.50;99.90
5118;DHT22;2578;51.622;7.046;2022-11-27T16:37:22;8.50;99.90
5118;DHT22;2578;51.622;7.046;2022-11-27T16:39:48;8.50;99.90
5118;DHT22;2578;51.622;7.046;2022-11-27T16:42:14;8.50;99.90
5118;DHT22;2578;51.622;7.046;2022-11-27T16:44:39;8.50;99.90
5118;DHT22;2578;51.622;7.046;2022-11-27T16:47:07;9.50;99.90
5118;DHT22;2578;51.622;7.046;2022-11-27T16:49:32;8.50;99.90
5118;DHT22;2578;51.622;7.046;2022-11-27T16:51:58;8.50;99.90
5118;DHT22;2578;51.622;7.046;2022-11-27T16:54:23;8.50;99.90
5118;DHT22;2578;51.622;7.046;2022-11-27T16:56:49;8.50;99.90
5118;DHT22;2578;51.622;7.046;2022-11-27T16:59:16;8.50;99.90
5118;DHT22;2578;51.622;7.046;2022-11-27T17:01:41;8.50;99.90
5118;DHT22;2578;51.622;7.046;2022-11-27T17:04:12;8.50;99.90
5118;DHT22;2578;51.622;7.046;2022-11-27T17:06:39;8.40;99.90
5118;DHT22;2578;51.622;7.046;2022-11-27T17:09:06;8.40;99.90
5118;DHT22;2578;51.622;7.046;2022-11-27T17:11:34;8.40;99.90
5118;DHT22;2578;51.622;7.046;2022-11-27T17:14:02;8.30;99.90
5118;DHT22;2578;51.622;7.046;2022-11-27T17:16:29;8.20;99.90
5118;DHT22;2578;51.622;7.046;2022-11-27T17:18:54;8.20;99.90
5118;DHT22;2578;51.622;7.046;2022-11-27T17:21:23;8.20;99.90
5118;DHT22;2578;51.622;7.046;2022-11-27T17:23:52;8.20;99.90
5118;DHT22;2578;51.622;7.046;2022-11-27T17:26:20;8.10;99.90
5118;DHT22;2578;51.622;7.046;2022-11-27T17:28:46;8.10;99.90
5118;DHT22;2578;51.622;7.046;2022-11-27T17:31:15;8.10;99.90
5118;DHT22;2578;51.622;7.046;2022-11-27T17:33:41;8.10;99.90
5118;DHT22;2578;51.622;7.046;2022-11-27T17:36:07;8.70;99.90
5118;DHT22;2578;51.622;7.046;2022-11-27T17:38:33;8.00;99.90
5118;DHT22;2578;51.622;7.046;2022-11-27T17:41:06;8.00;99.90
5118;DHT22;2578;51.622;7.046;2022-11-27T17:43:33;8.00;99.90
5118;DHT22;2578;51.622;7.046;2022-11-27T17:46:00;8.00;99.90
5118;DHT22;2578;51.622;7.046;2022-11-27T17:48:26;8.00;99.90
5118;DHT22;2578;51.622;7.046;2022-11-27T17:50:53;8.00;99.90
5118;DHT22;2578;51.622;7.046;2022-11-27T17:53:19;8.00;99.90
5118;DHT22;2578;51.622;7.046;2022-11-27T17:55:45;8.00;99.90
5118;DHT22;2578;51.622;7.046;2022-11-27T17:58:10;8.00;99.90
5118;DHT22;2578;51.622;7.046;2022-11-27T18:00:37;8.00;99.90
5118;DHT22;2578;51.622;7.046;2022-11-27T18:03:05;7.90;99.90
5118;DHT22;2578;51.622;7.046;2022-11-27T18:05:34;7.90;99.90
5118;DHT22;2578;51.622;7.046;2022-11-27T18:08:00;7.90;99.90
5118;DHT22;2578;51.622;7.046;2022-11-27T18:10:25;7.90;99.90
5118;DHT22;2578;51.622;7.046;2022-11-27T18:12:51;7.90;99.90
5118;DHT22;2578;51.622;7.046;2022-11-27T18:15:17;7.80;99.90
5118;DHT22;2578;51.622;7.046;2022-11-27T18:17:42;7.80;99.90
5118;DHT22;2578;51.622;7.046;2022-11-27T18:20:08;7.70;99.90